createdAt,value
2022-08-04T00:01:14.274Z,19.10
2022-08-04T00:05:35.082Z,19.00
2022-08-04T00:09:49.267Z,19.00
2022-08-04T00:14:04.938Z,18.90
2022-08-04T00:18:18.567Z,18.80
2022-08-04T00:22:31.320Z,18.80
2022-08-04T00:26:41.816Z,18.80
2022-08-04T00:30:51.466Z,18.70
2022-08-04T00:35:02.995Z,18.60
2022-08-04T00:39:16.141Z,18.60
2022-08-04T00:43:34.024Z,18.60
2022-08-04T00:48:00.319Z,18.50
2022-08-04T00:52:30.727Z,18.50
2022-08-04T00:57:05.127Z,18.40
2022-08-04T01:01:30.194Z,18.40
2022-08-04T01:05:51.390Z,18.40
2022-08-04T01:10:05.564Z,18.30
2022-08-04T01:14:29.437Z,18.10
2022-08-04T01:18:47.856Z,18.10
2022-08-04T01:23:26.213Z,17.90
2022-08-04T01:27:51.121Z,17.90
2022-08-04T01:32:06.212Z,17.80
2022-08-04T01:36:15.085Z,17.70
2022-08-04T01:40:23.960Z,17.60
2022-08-04T01:44:33.200Z,17.60
2022-08-04T01:48:46.660Z,17.60
2022-08-04T01:52:57.526Z,17.60
2022-08-04T01:57:37.539Z,17.70
2022-08-04T02:01:38.604Z,17.70
2022-08-04T02:06:03.992Z,17.80
2022-08-04T02:10:22.925Z,17.80
2022-08-04T02:14:41.914Z,17.90
2022-08-04T02:19:01.538Z,17.90
2022-08-04T02:23:15.560Z,17.90
2022-08-04T02:28:00.622Z,17.90
2022-08-04T02:32:06.375Z,17.90
2022-08-04T02:36:22.945Z,17.90
2022-08-04T02:40:34.347Z,17.90
2022-08-04T02:44:44.666Z,17.90
2022-08-04T02:48:56.264Z,17.90
2022-08-04T02:53:09.830Z,17.90
2022-08-04T02:57:23.052Z,17.90
2022-08-04T03:01:33.039Z,17.90
2022-08-04T03:06:01.614Z,17.90
2022-08-04T03:10:55.430Z,17.90
2022-08-04T03:15:41.429Z,17.80
2022-08-04T03:20:30.486Z,17.80
2022-08-04T03:25:12.767Z,17.80
2022-08-04T03:29:49.684Z,17.80
2022-08-04T03:34:17.195Z,17.70
2022-08-04T03:38:57.658Z,17.60
2022-08-04T03:44:07.072Z,17.60
2022-08-04T03:48:44.361Z,17.50
2022-08-04T03:53:10.770Z,17.40
2022-08-04T03:57:48.281Z,17.40
2022-08-04T04:02:21.910Z,17.20
2022-08-04T04:06:53.917Z,17.20
2022-08-04T04:11:32.570Z,17.10
2022-08-04T04:16:09.187Z,17.00
2022-08-04T04:20:35.025Z,16.90
2022-08-04T04:25:05.828Z,16.90
2022-08-04T04:29:30.441Z,16.80
2022-08-04T04:34:00.080Z,16.70
2022-08-04T04:38:37.451Z,16.70
2022-08-04T04:43:05.304Z,16.60
2022-08-04T04:48:06.986Z,16.70
2022-08-04T04:52:01.797Z,16.60
2022-08-04T04:56:17.899Z,16.60
2022-08-04T05:00:47.206Z,16.60
2022-08-04T05:05:15.660Z,16.60
2022-08-04T05:09:34.191Z,16.60
2022-08-04T05:14:36.804Z,16.60
2022-08-04T05:18:23.737Z,16.60
2022-08-04T05:22:38.526Z,16.50
2022-08-04T05:26:53.135Z,16.50
2022-08-04T05:31:05.616Z,16.50
2022-08-04T05:35:50.452Z,16.40
2022-08-04T05:39:58.713Z,16.50
2022-08-04T05:44:10.368Z,16.40
2022-08-04T05:48:19.828Z,16.50
2022-08-04T05:52:29.224Z,16.40
2022-08-04T05:56:39.119Z,16.40
2022-08-04T06:00:52.350Z,16.50
2022-08-04T06:05:03.362Z,16.60
2022-08-04T06:09:12.361Z,16.60
2022-08-04T06:13:48.823Z,16.70
2022-08-04T06:19:57.535Z,16.70
2022-08-04T06:22:34.477Z,16.70
2022-08-04T06:26:45.262Z,16.70
2022-08-04T06:30:55.677Z,16.70
2022-08-04T06:35:08.041Z,16.70
2022-08-04T06:39:17.215Z,16.70
2022-08-04T06:43:27.077Z,16.80
2022-08-04T06:47:39.736Z,16.90
2022-08-04T06:51:50.805Z,16.90
2022-08-04T06:56:02.777Z,16.90
2022-08-04T07:00:14.195Z,16.90
2022-08-04T07:04:23.463Z,17.00
2022-08-04T07:08:33.881Z,17.10
2022-08-04T07:12:43.015Z,17.30
2022-08-04T07:16:52.428Z,17.50
2022-08-04T07:21:01.661Z,17.50
2022-08-04T07:25:13.537Z,17.70
2022-08-04T07:29:24.328Z,17.90
2022-08-04T07:33:33.711Z,18.10
2022-08-04T07:37:42.477Z,18.30
2022-08-04T07:41:54.426Z,18.50
2022-08-04T07:46:03.684Z,18.50
2022-08-04T07:50:12.676Z,18.60
2022-08-04T07:54:22.013Z,18.70
2022-08-04T07:58:32.507Z,18.80
2022-08-04T08:02:42.072Z,19.00
2022-08-04T08:06:50.844Z,19.10
2022-08-04T08:11:00.112Z,19.10
2022-08-04T08:15:13.360Z,19.30
2022-08-04T08:19:24.678Z,19.40
2022-08-04T08:23:36.809Z,19.50
2022-08-04T08:27:56.154Z,19.80
2022-08-04T08:32:13.319Z,19.90
2022-08-04T08:36:27.925Z,19.90
2022-08-04T08:40:47.933Z,19.90
2022-08-04T08:45:31.674Z,19.90
2022-08-04T08:50:21.813Z,20.00
2022-08-04T08:54:53.189Z,20.50
2022-08-04T08:59:22.654Z,21.10
2022-08-04T09:03:58.502Z,21.40
2022-08-04T09:08:23.959Z,21.60
2022-08-04T09:12:41.698Z,22.00
2022-08-04T09:16:56.996Z,22.30
2022-08-04T09:21:13.854Z,22.40
2022-08-04T09:25:28.507Z,22.50
2022-08-04T09:29:44.691Z,22.60
2022-08-04T09:34:05.103Z,22.60
2022-08-04T09:38:22.292Z,22.80
2022-08-04T09:42:39.384Z,23.00
2022-08-04T09:46:59.631Z,22.80
2022-08-04T09:51:17.897Z,23.10
2022-08-04T09:55:53.579Z,22.90
2022-08-04T10:00:09.476Z,23.20
2022-08-04T10:04:20.079Z,23.50
2022-08-04T10:08:45.552Z,23.70
2022-08-04T10:13:19.342Z,23.70
2022-08-04T10:17:50.387Z,24.20
2022-08-04T10:22:29.100Z,24.40
2022-08-04T10:26:48.397Z,24.40
2022-08-04T10:31:02.307Z,24.60
2022-08-04T10:35:15.857Z,24.50
2022-08-04T10:39:43.668Z,24.60
2022-08-04T10:44:05.681Z,24.60
2022-08-04T10:48:34.850Z,24.80
2022-08-04T10:52:49.665Z,24.60
2022-08-04T10:57:01.810Z,24.90
2022-08-04T11:02:01.692Z,24.70
2022-08-04T11:05:56.277Z,25.20
2022-08-04T11:10:08.323Z,25.00
2022-08-04T11:14:20.615Z,25.40
2022-08-04T11:18:46.951Z,25.40
2022-08-04T11:23:11.285Z,25.10
2022-08-04T11:27:29.727Z,25.30
2022-08-04T11:31:44.720Z,25.50
2022-08-04T11:36:03.542Z,25.80
2022-08-04T11:40:17.473Z,25.70
2022-08-04T11:44:33.384Z,25.70
2022-08-04T11:48:46.643Z,25.50
2022-08-04T11:52:58.435Z,25.40
2022-08-04T11:57:08.074Z,25.70
2022-08-04T12:01:26.536Z,25.50
2022-08-04T12:05:43.086Z,25.70
2022-08-04T12:10:03.603Z,25.80
2022-08-04T12:14:23.604Z,25.60
2022-08-04T12:18:40.781Z,25.80
2022-08-04T12:22:52.137Z,25.70
2022-08-04T12:27:08.444Z,26.00
2022-08-04T12:31:23.813Z,26.40
2022-08-04T12:35:58.031Z,26.40
2022-08-04T12:40:28.692Z,26.20
2022-08-04T12:44:41.812Z,26.00
2022-08-04T12:48:51.689Z,26.00
2022-08-04T12:53:03.728Z,26.20
2022-08-04T12:57:14.776Z,26.00
2022-08-04T13:02:10.039Z,25.90
2022-08-04T13:05:56.245Z,26.10
2022-08-04T13:10:12.736Z,26.30
2022-08-04T13:14:30.212Z,26.30
2022-08-04T13:18:41.432Z,26.40
2022-08-04T13:22:50.690Z,26.50
2022-08-04T13:27:10.904Z,26.30
2022-08-04T13:31:27.549Z,25.90
2022-08-04T13:35:55.459Z,25.70
2022-08-04T13:40:07.171Z,25.90
2022-08-04T13:44:21.575Z,25.80
2022-08-04T13:48:35.304Z,25.60
2022-08-04T13:52:46.176Z,25.50
2022-08-04T13:57:00.013Z,25.60
2022-08-04T14:01:16.433Z,26.00
2022-08-04T14:05:29.458Z,26.30
2022-08-04T14:09:41.968Z,26.50
2022-08-04T14:14:19.065Z,26.30
2022-08-04T14:18:32.913Z,26.40
2022-08-04T14:22:41.673Z,26.30
2022-08-04T14:26:50.528Z,26.20
2022-08-04T14:31:12.691Z,25.90
2022-08-04T14:35:26.333Z,25.70
2022-08-04T14:39:40.114Z,25.80
2022-08-04T14:43:51.194Z,25.90
2022-08-04T14:48:00.973Z,25.50
2022-08-04T14:52:11.116Z,25.30
2022-08-04T14:56:44.961Z,25.50
2022-08-04T15:00:49.078Z,26.10
2022-08-04T15:04:57.920Z,26.00
2022-08-04T15:09:09.844Z,26.00
2022-08-04T15:13:18.558Z,26.00
2022-08-04T15:17:30.017Z,26.40
2022-08-04T15:21:39.664Z,26.30
2022-08-04T15:25:54.017Z,26.00
2022-08-04T15:30:05.091Z,25.90
2022-08-04T15:34:14.886Z,25.80
2022-08-04T15:38:31.326Z,25.90
2022-08-04T15:42:47.800Z,25.70
2022-08-04T15:47:20.144Z,25.40
2022-08-04T15:51:32.385Z,25.40
2022-08-04T15:55:44.222Z,25.40
2022-08-04T16:00:11.077Z,25.40
2022-08-04T16:04:25.026Z,25.70
2022-08-04T16:09:00.287Z,25.90
2022-08-04T16:13:10.393Z,25.70
2022-08-04T16:17:20.688Z,25.70
2022-08-04T16:21:34.518Z,25.60
2022-08-04T16:25:48.739Z,25.70
2022-08-04T16:30:06.827Z,25.60
2022-08-04T16:34:48.003Z,25.40
2022-08-04T16:39:04.503Z,25.50
2022-08-04T16:43:14.828Z,25.00
2022-08-04T16:48:04.408Z,24.70
2022-08-04T16:52:14.921Z,24.20
2022-08-04T16:56:32.971Z,24.10
2022-08-04T17:00:42.184Z,24.10
2022-08-04T17:05:06.820Z,23.90
2022-08-04T17:09:19.125Z,23.70
2022-08-04T17:14:03.676Z,23.80
2022-08-04T17:18:18.869Z,23.90
2022-08-04T17:22:27.779Z,24.10
2022-08-04T17:26:41.863Z,24.20
2022-08-04T17:30:56.012Z,24.10
2022-08-04T17:35:05.189Z,24.10
2022-08-04T17:39:17.306Z,24.10
2022-08-04T17:44:00.926Z,23.90
2022-08-04T17:48:10.690Z,23.70
2022-08-04T17:57:14.420Z,23.60
2022-08-04T18:01:25.916Z,23.40
2022-08-04T18:06:03.795Z,23.30
2022-08-04T18:10:33.095Z,23.10
2022-08-04T18:14:49.164Z,22.90
2022-08-04T18:19:13.483Z,22.60
2022-08-04T18:23:31.690Z,22.40
2022-08-04T18:27:50.787Z,22.20
2022-08-04T18:32:00.338Z,22.00
2022-08-04T18:36:32.924Z,21.70
2022-08-04T18:40:52.955Z,21.70
2022-08-04T18:45:05.577Z,21.40
2022-08-04T18:50:58.861Z,21.10
2022-08-04T18:53:45.072Z,20.90
2022-08-04T18:58:11.750Z,20.80
2022-08-04T19:02:23.425Z,20.60
2022-08-04T19:06:36.651Z,20.50
2022-08-04T19:10:48.637Z,20.20
2022-08-04T19:15:08.652Z,20.00
2022-08-04T19:19:20.691Z,19.80
2022-08-04T19:24:28.761Z,19.70
2022-08-04T19:28:03.171Z,19.50
2022-08-04T19:32:16.431Z,19.40
2022-08-04T19:36:28.357Z,19.20
2022-08-04T19:40:38.902Z,19.20
2022-08-04T19:44:49.847Z,19.00
2022-08-04T19:49:00.588Z,18.90
2022-08-04T19:57:41.327Z,18.70
2022-08-04T20:01:52.111Z,18.50
2022-08-04T20:06:03.688Z,18.40
2022-08-04T20:10:13.227Z,18.40
2022-08-04T20:14:32.840Z,18.30
2022-08-04T20:18:56.680Z,18.20
2022-08-04T20:23:06.759Z,18.10
2022-08-04T20:27:19.620Z,18.00
2022-08-04T20:31:31.706Z,17.90
2022-08-04T20:36:03.588Z,17.90
2022-08-04T20:40:12.707Z,17.80
2022-08-04T20:44:22.298Z,17.80
2022-08-04T20:48:33.825Z,17.70
2022-08-04T20:52:44.586Z,17.60
2022-08-04T20:56:53.309Z,17.60
2022-08-04T21:01:03.427Z,17.50
2022-08-04T21:05:13.888Z,17.40
2022-08-04T21:13:53.009Z,17.30
2022-08-04T21:18:04.482Z,17.20
2022-08-04T21:22:14.625Z,17.10
2022-08-04T21:26:40.228Z,17.10
2022-08-04T21:30:54.091Z,17.10
2022-08-04T21:35:10.285Z,17.00
2022-08-04T21:39:19.385Z,16.90
2022-08-04T21:43:42.391Z,16.80
2022-08-04T21:47:52.001Z,16.70
2022-08-04T21:52:01.731Z,16.70
2022-08-04T21:56:16.277Z,16.60
2022-08-04T22:00:36.855Z,16.60
2022-08-04T22:04:48.589Z,16.50
2022-08-04T22:08:57.905Z,16.40
2022-08-04T22:13:07.932Z,16.30
2022-08-04T22:17:18.440Z,16.30
2022-08-04T22:21:28.424Z,16.20
2022-08-04T22:25:37.579Z,16.20
2022-08-04T22:29:46.841Z,16.00
2022-08-04T22:33:57.643Z,15.90
2022-08-04T22:38:26.871Z,15.80
2022-08-04T22:42:35.615Z,15.60
2022-08-04T22:46:44.646Z,15.60
2022-08-04T22:50:56.637Z,15.40
2022-08-04T22:55:05.603Z,15.30
2022-08-04T22:59:15.742Z,15.30
2022-08-04T23:03:37.630Z,15.20
2022-08-04T23:07:51.233Z,15.10
2022-08-04T23:12:23.864Z,15.00
2022-08-04T23:16:28.969Z,15.00
2022-08-04T23:20:39.839Z,15.00
2022-08-04T23:24:50.062Z,15.00
2022-08-04T23:28:59.599Z,15.00
2022-08-04T23:33:12.526Z,15.00
2022-08-04T23:37:21.462Z,14.90
2022-08-04T23:41:53.915Z,14.80
2022-08-04T23:46:07.761Z,14.70
2022-08-04T23:50:17.414Z,14.70
2022-08-04T23:54:26.264Z,14.60
2022-08-04T23:58:37.054Z,14.60
